sensor_id;sensor_type;location;lat;lon;timestamp;P1;durP1;ratioP1;P2;durP2;ratioP2
1955;SDS011;978;48.314;11.562;2022-09-14T00:00:07;12.60;;;2.07;;
1955;SDS011;978;48.314;11.562;2022-09-14T00:02:35;12.97;;;2.37;;
1955;SDS011;978;48.314;11.562;2022-09-14T00:05:02;12.40;;;2.03;;
1955;SDS011;978;48.314;11.562;2022-09-14T00:07:31;12.63;;;2.10;;
1955;SDS011;978;48.314;11.562;2022-09-14T00:09:58;12.60;;;2.07;;
1955;SDS011;978;48.314;11.562;2022-09-14T00:12:26;12.57;;;2.20;;
1955;SDS011;978;48.314;11.562;2022-09-14T00:14:54;12.53;;;2.10;;
1955;SDS011;978;48.314;11.562;2022-09-14T00:17:22;12.70;;;2.60;;
1955;SDS011;978;48.314;11.562;2022-09-14T00:19:50;12.80;;;2.07;;
1955;SDS011;978;48.314;11.562;2022-09-14T00:22:19;12.50;;;1.90;;
1955;SDS011;978;48.314;11.562;2022-09-14T00:24:47;12.60;;;2.37;;
1955;SDS011;978;48.314;11.562;2022-09-14T00:27:15;12.20;;;2.10;;
1955;SDS011;978;48.314;11.562;2022-09-14T00:29:42;13.03;;;2.50;;
1955;SDS011;978;48.314;11.562;2022-09-14T00:32:10;12.30;;;2.00;;
1955;SDS011;978;48.314;11.562;2022-09-14T00:34:38;12.57;;;2.37;;
1955;SDS011;978;48.314;11.562;2022-09-14T00:37:05;12.50;;;1.83;;
1955;SDS011;978;48.314;11.562;2022-09-14T00:39:32;12.33;;;1.90;;
1955;SDS011;978;48.314;11.562;2022-09-14T00:42:01;12.50;;;2.13;;
1955;SDS011;978;48.314;11.562;2022-09-14T00:47:26;12.70;;;2.00;;
1955;SDS011;978;48.314;11.562;2022-09-14T00:49:54;12.37;;;2.40;;
1955;SDS011;978;48.314;11.562;2022-09-14T00:52:22;17.83;;;3.33;;
1955;SDS011;978;48.314;11.562;2022-09-14T00:54:53;12.60;;;1.80;;
1955;SDS011;978;48.314;11.562;2022-09-14T00:57:24;12.97;;;2.03;;
1955;SDS011;978;48.314;11.562;2022-09-14T00:59:53;12.63;;;2.27;;
1955;SDS011;978;48.314;11.562;2022-09-14T01:02:22;13.53;;;2.67;;
1955;SDS011;978;48.314;11.562;2022-09-14T01:04:51;12.53;;;2.10;;
1955;SDS011;978;48.314;11.562;2022-09-14T01:10:28;13.50;;;2.93;;
1955;SDS011;978;48.314;11.562;2022-09-14T01:13:23;12.77;;;2.13;;
1955;SDS011;978;48.314;11.562;2022-09-14T01:16:00;12.57;;;2.20;;
1955;SDS011;978;48.314;11.562;2022-09-14T01:18:41;12.70;;;2.17;;
1955;SDS011;978;48.314;11.562;2022-09-14T01:21:12;12.80;;;2.37;;
1955;SDS011;978;48.314;11.562;2022-09-14T01:23:46;13.17;;;2.17;;
1955;SDS011;978;48.314;11.562;2022-09-14T01:26:34;12.87;;;2.27;;
1955;SDS011;978;48.314;11.562;2022-09-14T01:29:27;12.63;;;2.23;;
1955;SDS011;978;48.314;11.562;2022-09-14T01:32:00;12.57;;;2.20;;
1955;SDS011;978;48.314;11.562;2022-09-14T01:34:35;12.60;;;2.23;;
1955;SDS011;978;48.314;11.562;2022-09-14T01:37:10;12.90;;;2.07;;
1955;SDS011;978;48.314;11.562;2022-09-14T01:39:42;12.73;;;2.33;;
1955;SDS011;978;48.314;11.562;2022-09-14T01:42:12;12.93;;;2.20;;
1955;SDS011;978;48.314;11.562;2022-09-14T01:44:44;12.67;;;2.10;;
1955;SDS011;978;48.314;11.562;2022-09-14T01:47:15;12.60;;;2.43;;
1955;SDS011;978;48.314;11.562;2022-09-14T01:49:49;12.33;;;1.97;;
1955;SDS011;978;48.314;11.562;2022-09-14T01:52:23;13.10;;;2.30;;
1955;SDS011;978;48.314;11.562;2022-09-14T01:54:53;12.93;;;1.90;;
1955;SDS011;978;48.314;11.562;2022-09-14T01:57:28;12.90;;;2.27;;
1955;SDS011;978;48.314;11.562;2022-09-14T02:00:00;12.37;;;1.93;;
1955;SDS011;978;48.314;11.562;2022-09-14T02:02:32;12.77;;;1.90;;
1955;SDS011;978;48.314;11.562;2022-09-14T02:05:05;12.30;;;2.10;;
1955;SDS011;978;48.314;11.562;2022-09-14T02:07:35;12.77;;;2.30;;
1955;SDS011;978;48.314;11.562;2022-09-14T02:10:03;12.70;;;1.90;;
1955;SDS011;978;48.314;11.562;2022-09-14T02:12:35;12.87;;;1.97;;
1955;SDS011;978;48.314;11.562;2022-09-14T02:15:04;13.00;;;2.07;;
1955;SDS011;978;48.314;11.562;2022-09-14T02:17:32;12.60;;;2.13;;
1955;SDS011;978;48.314;11.562;2022-09-14T02:19:59;12.57;;;2.10;;
1955;SDS011;978;48.314;11.562;2022-09-14T02:22:29;13.13;;;2.50;;
1955;SDS011;978;48.314;11.562;2022-09-14T02:24:56;16.07;;;2.10;;
1955;SDS011;978;48.314;11.562;2022-09-14T02:27:23;13.10;;;2.40;;
1955;SDS011;978;48.314;11.562;2022-09-14T02:29:50;12.60;;;2.10;;
1955;SDS011;978;48.314;11.562;2022-09-14T02:32:22;12.53;;;2.20;;
1955;SDS011;978;48.314;11.562;2022-09-14T02:34:56;12.43;;;1.70;;
1955;SDS011;978;48.314;11.562;2022-09-14T02:37:33;12.63;;;2.20;;
1955;SDS011;978;48.314;11.562;2022-09-14T02:40:12;12.40;;;1.90;;
1955;SDS011;978;48.314;11.562;2022-09-14T02:42:46;12.40;;;1.93;;
1955;SDS011;978;48.314;11.562;2022-09-14T02:45:21;12.40;;;1.77;;
1955;SDS011;978;48.314;11.562;2022-09-14T02:47:54;12.77;;;1.90;;
1955;SDS011;978;48.314;11.562;2022-09-14T02:50:27;12.60;;;1.67;;
1955;SDS011;978;48.314;11.562;2022-09-14T02:53:03;12.60;;;2.00;;
1955;SDS011;978;48.314;11.562;2022-09-14T02:55:39;13.00;;;2.00;;
1955;SDS011;978;48.314;11.562;2022-09-14T02:58:10;12.53;;;1.93;;
1955;SDS011;978;48.314;11.562;2022-09-14T03:00:40;12.37;;;1.63;;
1955;SDS011;978;48.314;11.562;2022-09-14T03:03:15;12.60;;;1.80;;
1955;SDS011;978;48.314;11.562;2022-09-14T03:05:44;12.07;;;1.70;;
1955;SDS011;978;48.314;11.562;2022-09-14T03:08:11;12.43;;;1.87;;
1955;SDS011;978;48.314;11.562;2022-09-14T03:10:40;12.27;;;1.67;;
1955;SDS011;978;48.314;11.562;2022-09-14T03:13:09;12.53;;;1.70;;
1955;SDS011;978;48.314;11.562;2022-09-14T03:15:37;12.43;;;1.93;;
1955;SDS011;978;48.314;11.562;2022-09-14T03:18:05;12.60;;;1.67;;
1955;SDS011;978;48.314;11.562;2022-09-14T03:20:37;12.27;;;1.73;;
1955;SDS011;978;48.314;11.562;2022-09-14T03:23:04;12.27;;;1.87;;
1955;SDS011;978;48.314;11.562;2022-09-14T03:25:35;11.93;;;1.90;;
1955;SDS011;978;48.314;11.562;2022-09-14T03:28:03;12.23;;;1.70;;
1955;SDS011;978;48.314;11.562;2022-09-14T03:30:30;12.57;;;1.70;;
1955;SDS011;978;48.314;11.562;2022-09-14T03:32:57;12.20;;;1.77;;
1955;SDS011;978;48.314;11.562;2022-09-14T03:35:24;12.30;;;1.60;;
1955;SDS011;978;48.314;11.562;2022-09-14T03:37:53;12.80;;;1.80;;
1955;SDS011;978;48.314;11.562;2022-09-14T03:40:20;11.97;;;1.53;;
1955;SDS011;978;48.314;11.562;2022-09-14T03:42:47;12.07;;;1.70;;
1955;SDS011;978;48.314;11.562;2022-09-14T03:45:17;12.87;;;1.83;;
1955;SDS011;978;48.314;11.562;2022-09-14T03:47:46;12.00;;;1.77;;
1955;SDS011;978;48.314;11.562;2022-09-14T03:50:15;12.67;;;2.20;;
1955;SDS011;978;48.314;11.562;2022-09-14T03:52:42;11.83;;;1.90;;
1955;SDS011;978;48.314;11.562;2022-09-14T03:55:15;12.20;;;1.70;;
1955;SDS011;978;48.314;11.562;2022-09-14T03:57:43;12.50;;;1.73;;
1955;SDS011;978;48.314;11.562;2022-09-14T04:00:10;12.50;;;1.80;;
1955;SDS011;978;48.314;11.562;2022-09-14T04:02:39;12.40;;;1.80;;
1955;SDS011;978;48.314;11.562;2022-09-14T04:05:06;12.70;;;1.70;;
1955;SDS011;978;48.314;11.562;2022-09-14T04:07:35;11.97;;;1.80;;
1955;SDS011;978;48.314;11.562;2022-09-14T04:10:02;12.27;;;2.00;;
1955;SDS011;978;48.314;11.562;2022-09-14T04:12:34;12.17;;;1.60;;
1955;SDS011;978;48.314;11.562;2022-09-14T04:15:02;12.20;;;1.70;;
1955;SDS011;978;48.314;11.562;2022-09-14T04:17:30;12.63;;;2.00;;
1955;SDS011;978;48.314;11.562;2022-09-14T04:19:58;12.03;;;1.80;;
1955;SDS011;978;48.314;11.562;2022-09-14T04:22:26;11.93;;;1.80;;
1955;SDS011;978;48.314;11.562;2022-09-14T04:24:53;12.07;;;1.47;;
1955;SDS011;978;48.314;11.562;2022-09-14T04:27:21;12.43;;;1.80;;
1955;SDS011;978;48.314;11.562;2022-09-14T04:29:49;12.27;;;1.80;;
1955;SDS011;978;48.314;11.562;2022-09-14T04:32:17;13.33;;;3.00;;
1955;SDS011;978;48.314;11.562;2022-09-14T04:34:45;12.50;;;2.30;;
1955;SDS011;978;48.314;11.562;2022-09-14T04:37:15;12.70;;;1.83;;
1955;SDS011;978;48.314;11.562;2022-09-14T04:39:41;12.67;;;1.80;;
1955;SDS011;978;48.314;11.562;2022-09-14T04:42:10;12.20;;;2.10;;
1955;SDS011;978;48.314;11.562;2022-09-14T04:44:37;12.60;;;1.90;;
1955;SDS011;978;48.314;11.562;2022-09-14T04:47:07;12.67;;;1.73;;
1955;SDS011;978;48.314;11.562;2022-09-14T04:49:36;12.10;;;1.90;;
1955;SDS011;978;48.314;11.562;2022-09-14T04:52:03;12.40;;;1.80;;
1955;SDS011;978;48.314;11.562;2022-09-14T04:54:31;12.23;;;1.80;;
1955;SDS011;978;48.314;11.562;2022-09-14T04:56:58;12.37;;;2.00;;
1955;SDS011;978;48.314;11.562;2022-09-14T04:59:26;12.63;;;1.70;;
1955;SDS011;978;48.314;11.562;2022-09-14T05:01:53;12.90;;;2.07;;
1955;SDS011;978;48.314;11.562;2022-09-14T05:04:22;11.90;;;1.70;;
1955;SDS011;978;48.314;11.562;2022-09-14T05:06:49;12.23;;;1.80;;
1955;SDS011;978;48.314;11.562;2022-09-14T05:09:17;11.90;;;1.67;;
1955;SDS011;978;48.314;11.562;2022-09-14T05:11:44;12.47;;;2.00;;
1955;SDS011;978;48.314;11.562;2022-09-14T05:14:14;12.23;;;1.80;;
1955;SDS011;978;48.314;11.562;2022-09-14T05:16:43;14.27;;;2.20;;
1955;SDS011;978;48.314;11.562;2022-09-14T05:19:10;12.10;;;1.80;;
1955;SDS011;978;48.314;11.562;2022-09-14T05:21:41;12.40;;;1.90;;
1955;SDS011;978;48.314;11.562;2022-09-14T05:24:11;12.13;;;1.80;;
1955;SDS011;978;48.314;11.562;2022-09-14T05:26:39;12.50;;;2.00;;
1955;SDS011;978;48.314;11.562;2022-09-14T05:29:09;12.40;;;1.93;;
1955;SDS011;978;48.314;11.562;2022-09-14T05:31:39;12.40;;;2.00;;
1955;SDS011;978;48.314;11.562;2022-09-14T05:34:08;12.27;;;1.90;;
1955;SDS011;978;48.314;11.562;2022-09-14T05:36:37;12.30;;;1.63;;
1955;SDS011;978;48.314;11.562;2022-09-14T05:39:06;12.47;;;2.40;;
1955;SDS011;978;48.314;11.562;2022-09-14T05:41:35;12.43;;;1.70;;
1955;SDS011;978;48.314;11.562;2022-09-14T05:44:03;13.50;;;2.00;;
1955;SDS011;978;48.314;11.562;2022-09-14T05:46:31;12.73;;;2.53;;
1955;SDS011;978;48.314;11.562;2022-09-14T05:48:59;12.40;;;1.90;;
1955;SDS011;978;48.314;11.562;2022-09-14T05:51:27;12.10;;;2.00;;
1955;SDS011;978;48.314;11.562;2022-09-14T05:53:54;12.50;;;2.30;;
1955;SDS011;978;48.314;11.562;2022-09-14T05:56:24;12.90;;;2.40;;
1955;SDS011;978;48.314;11.562;2022-09-14T05:58:51;12.67;;;2.00;;
1955;SDS011;978;48.314;11.562;2022-09-14T06:01:20;13.20;;;2.00;;
1955;SDS011;978;48.314;11.562;2022-09-14T06:03:51;12.50;;;2.13;;
1955;SDS011;978;48.314;11.562;2022-09-14T06:06:19;12.40;;;2.00;;
1955;SDS011;978;48.314;11.562;2022-09-14T06:08:48;12.50;;;2.30;;
1955;SDS011;978;48.314;11.562;2022-09-14T06:11:18;12.83;;;2.87;;
1955;SDS011;978;48.314;11.562;2022-09-14T06:13:47;12.43;;;2.17;;
1955;SDS011;978;48.314;11.562;2022-09-14T06:16:17;12.73;;;2.00;;
1955;SDS011;978;48.314;11.562;2022-09-14T06:18:45;12.67;;;2.13;;
1955;SDS011;978;48.314;11.562;2022-09-14T06:21:14;12.60;;;2.10;;
1955;SDS011;978;48.314;11.562;2022-09-14T06:23:43;12.87;;;2.50;;
1955;SDS011;978;48.314;11.562;2022-09-14T06:26:10;13.17;;;2.63;;
1955;SDS011;978;48.314;11.562;2022-09-14T06:28:39;12.83;;;2.40;;
1955;SDS011;978;48.314;11.562;2022-09-14T06:31:09;12.83;;;2.10;;
1955;SDS011;978;48.314;11.562;2022-09-14T06:33:41;12.30;;;1.90;;
1955;SDS011;978;48.314;11.562;2022-09-14T06:36:10;12.47;;;2.10;;
1955;SDS011;978;48.314;11.562;2022-09-14T06:38:39;12.73;;;2.20;;
1955;SDS011;978;48.314;11.562;2022-09-14T06:41:09;12.80;;;2.20;;
1955;SDS011;978;48.314;11.562;2022-09-14T06:43:43;12.83;;;2.60;;
1955;SDS011;978;48.314;11.562;2022-09-14T06:46:14;12.50;;;2.03;;
1955;SDS011;978;48.314;11.562;2022-09-14T06:48:45;12.50;;;2.30;;
1955;SDS011;978;48.314;11.562;2022-09-14T06:51:15;12.40;;;2.10;;
1955;SDS011;978;48.314;11.562;2022-09-14T06:53:45;16.33;;;2.80;;
1955;SDS011;978;48.314;11.562;2022-09-14T06:56:12;12.70;;;1.97;;
1955;SDS011;978;48.314;11.562;2022-09-14T06:58:41;12.67;;;2.10;;
1955;SDS011;978;48.314;11.562;2022-09-14T07:01:10;13.67;;;2.23;;
1955;SDS011;978;48.314;11.562;2022-09-14T07:03:40;12.97;;;2.40;;
1955;SDS011;978;48.314;11.562;2022-09-14T07:06:10;12.87;;;2.10;;
1955;SDS011;978;48.314;11.562;2022-09-14T07:08:38;12.70;;;2.13;;
1955;SDS011;978;48.314;11.562;2022-09-14T07:11:05;12.80;;;2.20;;
1955;SDS011;978;48.314;11.562;2022-09-14T07:13:33;12.60;;;2.37;;
1955;SDS011;978;48.314;11.562;2022-09-14T07:16:00;12.90;;;2.40;;
1955;SDS011;978;48.314;11.562;2022-09-14T07:18:29;12.70;;;2.30;;
1955;SDS011;978;48.314;11.562;2022-09-14T07:21:01;12.80;;;2.40;;
1955;SDS011;978;48.314;11.562;2022-09-14T07:23:28;13.17;;;1.70;;
1955;SDS011;978;48.314;11.562;2022-09-14T07:26:01;13.13;;;2.00;;
1955;SDS011;978;48.314;11.562;2022-09-14T07:28:31;12.33;;;2.00;;
1955;SDS011;978;48.314;11.562;2022-09-14T07:30:58;12.47;;;2.07;;
1955;SDS011;978;48.314;11.562;2022-09-14T07:33:25;12.50;;;2.20;;
1955;SDS011;978;48.314;11.562;2022-09-14T07:35:54;12.40;;;2.47;;
1955;SDS011;978;48.314;11.562;2022-09-14T07:38:30;12.60;;;1.77;;
1955;SDS011;978;48.314;11.562;2022-09-14T07:40:57;12.87;;;2.20;;
1955;SDS011;978;48.314;11.562;2022-09-14T07:43:25;12.70;;;2.40;;
1955;SDS011;978;48.314;11.562;2022-09-14T07:45:51;12.53;;;2.73;;
1955;SDS011;978;48.314;11.562;2022-09-14T07:48:19;12.97;;;2.23;;
1955;SDS011;978;48.314;11.562;2022-09-14T07:50:47;13.13;;;2.00;;
1955;SDS011;978;48.314;11.562;2022-09-14T07:53:16;13.10;;;2.30;;
1955;SDS011;978;48.314;11.562;2022-09-14T07:55:44;12.90;;;2.10;;
1955;SDS011;978;48.314;11.562;2022-09-14T07:58:13;12.53;;;2.30;;
1955;SDS011;978;48.314;11.562;2022-09-14T08:00:40;12.53;;;1.90;;
1955;SDS011;978;48.314;11.562;2022-09-14T08:03:06;13.00;;;2.03;;
1955;SDS011;978;48.314;11.562;2022-09-14T08:05:36;12.80;;;2.90;;
1955;SDS011;978;48.314;11.562;2022-09-14T08:08:02;12.30;;;2.00;;
1955;SDS011;978;48.314;11.562;2022-09-14T08:10:33;12.57;;;2.43;;
1955;SDS011;978;48.314;11.562;2022-09-14T08:13:00;12.37;;;1.90;;
1955;SDS011;978;48.314;11.562;2022-09-14T08:15:28;12.60;;;1.97;;
1955;SDS011;978;48.314;11.562;2022-09-14T08:17:55;12.40;;;2.20;;
1955;SDS011;978;48.314;11.562;2022-09-14T08:20:24;12.97;;;2.40;;
1955;SDS011;978;48.314;11.562;2022-09-14T08:22:50;12.70;;;2.53;;
1955;SDS011;978;48.314;11.562;2022-09-14T08:25:18;12.50;;;2.03;;
1955;SDS011;978;48.314;11.562;2022-09-14T08:27:46;12.40;;;2.13;;
1955;SDS011;978;48.314;11.562;2022-09-14T08:30:14;13.27;;;2.43;;
1955;SDS011;978;48.314;11.562;2022-09-14T08:32:41;13.20;;;2.23;;
1955;SDS011;978;48.314;11.562;2022-09-14T08:35:09;13.00;;;2.47;;
1955;SDS011;978;48.314;11.562;2022-09-14T08:37:36;12.57;;;1.93;;
1955;SDS011;978;48.314;11.562;2022-09-14T08:40:03;12.80;;;2.27;;
1955;SDS011;978;48.314;11.562;2022-09-14T08:42:30;12.80;;;2.30;;
1955;SDS011;978;48.314;11.562;2022-09-14T08:44:59;13.00;;;1.90;;
1955;SDS011;978;48.314;11.562;2022-09-14T08:47:30;12.50;;;1.80;;
1955;SDS011;978;48.314;11.562;2022-09-14T08:50:02;12.73;;;2.07;;
1955;SDS011;978;48.314;11.562;2022-09-14T08:52:37;12.87;;;2.20;;
1955;SDS011;978;48.314;11.562;2022-09-14T08:55:14;12.70;;;2.23;;
1955;SDS011;978;48.314;11.562;2022-09-14T08:57:49;12.50;;;2.23;;
1955;SDS011;978;48.314;11.562;2022-09-14T09:00:22;12.67;;;2.00;;
1955;SDS011;978;48.314;11.562;2022-09-14T09:02:58;12.30;;;2.03;;
1955;SDS011;978;48.314;11.562;2022-09-14T09:05:45;12.60;;;2.23;;
1955;SDS011;978;48.314;11.562;2022-09-14T09:08:18;12.20;;;2.10;;
1955;SDS011;978;48.314;11.562;2022-09-14T09:10:51;12.50;;;2.50;;
1955;SDS011;978;48.314;11.562;2022-09-14T09:13:24;13.00;;;1.90;;
1955;SDS011;978;48.314;11.562;2022-09-14T09:15:56;12.43;;;2.20;;
1955;SDS011;978;48.314;11.562;2022-09-14T09:18:27;12.90;;;2.17;;
1955;SDS011;978;48.314;11.562;2022-09-14T09:21:02;13.20;;;2.40;;
1955;SDS011;978;48.314;11.562;2022-09-14T09:23:35;13.13;;;2.40;;
1955;SDS011;978;48.314;11.562;2022-09-14T09:26:02;13.07;;;2.37;;
1955;SDS011;978;48.314;11.562;2022-09-14T09:28:36;12.80;;;2.40;;
1955;SDS011;978;48.314;11.562;2022-09-14T09:31:09;12.40;;;2.03;;
1955;SDS011;978;48.314;11.562;2022-09-14T09:33:41;12.73;;;2.30;;
1955;SDS011;978;48.314;11.562;2022-09-14T09:36:13;12.70;;;2.50;;
1955;SDS011;978;48.314;11.562;2022-09-14T09:38:41;12.90;;;2.60;;
1955;SDS011;978;48.314;11.562;2022-09-14T09:41:11;15.47;;;4.43;;
1955;SDS011;978;48.314;11.562;2022-09-14T09:46:27;17.60;;;9.63;;
1955;SDS011;978;48.314;11.562;2022-09-14T09:48:56;17.70;;;9.40;;
1955;SDS011;978;48.314;11.562;2022-09-14T09:51:25;17.93;;;9.00;;
1955;SDS011;978;48.314;11.562;2022-09-14T09:53:54;17.87;;;9.87;;
1955;SDS011;978;48.314;11.562;2022-09-14T09:56:25;16.70;;;6.63;;
1955;SDS011;978;48.314;11.562;2022-09-14T09:58:54;15.80;;;7.13;;
1955;SDS011;978;48.314;11.562;2022-09-14T10:01:26;14.80;;;4.67;;
1955;SDS011;978;48.314;11.562;2022-09-14T10:04:03;13.10;;;3.30;;
1955;SDS011;978;48.314;11.562;2022-09-14T10:06:39;13.17;;;3.30;;
1955;SDS011;978;48.314;11.562;2022-09-14T10:09:12;13.57;;;2.80;;
1955;SDS011;978;48.314;11.562;2022-09-14T10:11:42;13.17;;;2.90;;
1955;SDS011;978;48.314;11.562;2022-09-14T10:14:20;13.03;;;2.57;;
1955;SDS011;978;48.314;11.562;2022-09-14T10:16:51;13.10;;;3.10;;
1955;SDS011;978;48.314;11.562;2022-09-14T10:19:20;13.10;;;2.47;;
1955;SDS011;978;48.314;11.562;2022-09-14T10:24:55;14.20;;;2.80;;
1955;SDS011;978;48.314;11.562;2022-09-14T10:27:34;14.70;;;3.13;;
1955;SDS011;978;48.314;11.562;2022-09-14T10:30:09;13.73;;;3.07;;
1955;SDS011;978;48.314;11.562;2022-09-14T10:32:40;13.53;;;3.00;;
1955;SDS011;978;48.314;11.562;2022-09-14T10:35:12;13.40;;;2.90;;
1955;SDS011;978;48.314;11.562;2022-09-14T10:37:44;13.20;;;2.70;;
1955;SDS011;978;48.314;11.562;2022-09-14T10:40:26;13.73;;;3.47;;
1955;SDS011;978;48.314;11.562;2022-09-14T10:43:02;13.90;;;3.30;;
1955;SDS011;978;48.314;11.562;2022-09-14T10:45:35;14.53;;;3.43;;
1955;SDS011;978;48.314;11.562;2022-09-14T10:48:11;13.70;;;3.80;;
1955;SDS011;978;48.314;11.562;2022-09-14T10:50:57;14.10;;;3.37;;
1955;SDS011;978;48.314;11.562;2022-09-14T10:53:43;13.97;;;3.17;;
1955;SDS011;978;48.314;11.562;2022-09-14T10:56:16;13.97;;;4.00;;
1955;SDS011;978;48.314;11.562;2022-09-14T10:58:57;13.60;;;3.57;;
1955;SDS011;978;48.314;11.562;2022-09-14T11:04:58;14.27;;;3.67;;
1955;SDS011;978;48.314;11.562;2022-09-14T11:07:37;14.47;;;3.37;;
1955;SDS011;978;48.314;11.562;2022-09-14T11:10:16;14.33;;;3.90;;
1955;SDS011;978;48.314;11.562;2022-09-14T11:12:50;14.07;;;3.77;;
1955;SDS011;978;48.314;11.562;2022-09-14T11:15:45;14.07;;;3.93;;
1955;SDS011;978;48.314;11.562;2022-09-14T11:18:24;13.90;;;4.27;;
1955;SDS011;978;48.314;11.562;2022-09-14T11:21:04;14.47;;;3.67;;
1955;SDS011;978;48.314;11.562;2022-09-14T11:23:44;13.87;;;3.97;;
1955;SDS011;978;48.314;11.562;2022-09-14T11:26:16;17.23;;;5.50;;
1955;SDS011;978;48.314;11.562;2022-09-14T11:28:50;13.70;;;3.80;;
1955;SDS011;978;48.314;11.562;2022-09-14T11:31:22;14.30;;;3.87;;
1955;SDS011;978;48.314;11.562;2022-09-14T11:33:54;15.33;;;4.67;;
1955;SDS011;978;48.314;11.562;2022-09-14T11:36:28;14.60;;;4.40;;
1955;SDS011;978;48.314;11.562;2022-09-14T11:39:00;15.57;;;6.27;;
1955;SDS011;978;48.314;11.562;2022-09-14T11:41:46;15.23;;;4.87;;
1955;SDS011;978;48.314;11.562;2022-09-14T11:44:18;15.20;;;5.13;;
1955;SDS011;978;48.314;11.562;2022-09-14T11:46:49;15.27;;;5.87;;
1955;SDS011;978;48.314;11.562;2022-09-14T11:49:24;16.37;;;5.50;;
1955;SDS011;978;48.314;11.562;2022-09-14T11:51:59;17.20;;;8.27;;
1955;SDS011;978;48.314;11.562;2022-09-14T11:54:33;18.33;;;10.20;;
1955;SDS011;978;48.314;11.562;2022-09-14T11:57:05;25.13;;;10.63;;
1955;SDS011;978;48.314;11.562;2022-09-14T11:59:35;18.63;;;9.90;;
1955;SDS011;978;48.314;11.562;2022-09-14T12:08:03;18.30;;;9.83;;
1955;SDS011;978;48.314;11.562;2022-09-14T12:11:03;18.20;;;7.90;;
1955;SDS011;978;48.314;11.562;2022-09-14T12:13:47;19.27;;;10.97;;
1955;SDS011;978;48.314;11.562;2022-09-14T12:16:15;19.87;;;12.70;;
1955;SDS011;978;48.314;11.562;2022-09-14T12:18:43;20.20;;;10.63;;
1955;SDS011;978;48.314;11.562;2022-09-14T12:21:23;18.90;;;9.83;;
1955;SDS011;978;48.314;11.562;2022-09-14T12:23:53;18.90;;;9.43;;
1955;SDS011;978;48.314;11.562;2022-09-14T12:26:28;21.00;;;8.47;;
1955;SDS011;978;48.314;11.562;2022-09-14T12:29:01;17.70;;;8.20;;
1955;SDS011;978;48.314;11.562;2022-09-14T12:31:57;18.27;;;8.63;;
1955;SDS011;978;48.314;11.562;2022-09-14T12:34:31;17.93;;;9.00;;
1955;SDS011;978;48.314;11.562;2022-09-14T12:40:20;19.07;;;9.00;;
1955;SDS011;978;48.314;11.562;2022-09-14T12:55:02;20.23;;;11.80;;
1955;SDS011;978;48.314;11.562;2022-09-14T12:57:46;20.40;;;13.47;;
1955;SDS011;978;48.314;11.562;2022-09-14T13:00:20;20.40;;;14.03;;
1955;SDS011;978;48.314;11.562;2022-09-14T13:03:04;19.00;;;12.10;;
1955;SDS011;978;48.314;11.562;2022-09-14T13:05:44;19.80;;;11.57;;
1955;SDS011;978;48.314;11.562;2022-09-14T13:08:11;19.83;;;13.30;;
1955;SDS011;978;48.314;11.562;2022-09-14T13:10:44;21.80;;;15.97;;
1955;SDS011;978;48.314;11.562;2022-09-14T13:13:16;20.17;;;12.03;;
1955;SDS011;978;48.314;11.562;2022-09-14T13:15:52;16.80;;;6.90;;
1955;SDS011;978;48.314;11.562;2022-09-14T13:18:25;16.70;;;6.53;;
1955;SDS011;978;48.314;11.562;2022-09-14T13:20:57;17.73;;;7.50;;
1955;SDS011;978;48.314;11.562;2022-09-14T13:23:27;16.60;;;5.67;;
1955;SDS011;978;48.314;11.562;2022-09-14T13:25:58;17.50;;;6.07;;
1955;SDS011;978;48.314;11.562;2022-09-14T13:28:35;16.30;;;5.03;;
1955;SDS011;978;48.314;11.562;2022-09-14T13:31:04;16.60;;;4.93;;
1955;SDS011;978;48.314;11.562;2022-09-14T13:33:32;16.20;;;5.40;;
1955;SDS011;978;48.314;11.562;2022-09-14T13:36:00;15.20;;;5.10;;
1955;SDS011;978;48.314;11.562;2022-09-14T13:38:31;16.57;;;6.33;;
1955;SDS011;978;48.314;11.562;2022-09-14T13:41:03;15.93;;;5.53;;
1955;SDS011;978;48.314;11.562;2022-09-14T13:43:38;17.10;;;5.83;;
1955;SDS011;978;48.314;11.562;2022-09-14T13:46:06;16.00;;;5.83;;
1955;SDS011;978;48.314;11.562;2022-09-14T13:48:35;16.47;;;6.00;;
1955;SDS011;978;48.314;11.562;2022-09-14T13:51:05;16.90;;;5.60;;
1955;SDS011;978;48.314;11.562;2022-09-14T13:53:37;16.77;;;6.80;;
1955;SDS011;978;48.314;11.562;2022-09-14T13:56:19;16.50;;;6.43;;
1955;SDS011;978;48.314;11.562;2022-09-14T13:59:11;16.47;;;6.00;;
1955;SDS011;978;48.314;11.562;2022-09-14T14:01:48;16.57;;;6.07;;
1955;SDS011;978;48.314;11.562;2022-09-14T14:04:28;17.20;;;6.90;;
1955;SDS011;978;48.314;11.562;2022-09-14T14:07:01;17.97;;;8.00;;
1955;SDS011;978;48.314;11.562;2022-09-14T14:09:40;17.13;;;5.67;;
1955;SDS011;978;48.314;11.562;2022-09-14T14:12:11;16.90;;;6.30;;
1955;SDS011;978;48.314;11.562;2022-09-14T14:14:52;16.50;;;7.07;;
1955;SDS011;978;48.314;11.562;2022-09-14T14:17:22;16.53;;;6.17;;
1955;SDS011;978;48.314;11.562;2022-09-14T14:20:23;16.30;;;6.53;;
1955;SDS011;978;48.314;11.562;2022-09-14T14:22:56;16.63;;;6.30;;
1955;SDS011;978;48.314;11.562;2022-09-14T14:25:27;17.10;;;7.30;;
1955;SDS011;978;48.314;11.562;2022-09-14T14:27:59;19.73;;;6.60;;
1955;SDS011;978;48.314;11.562;2022-09-14T14:30:29;17.37;;;6.83;;
1955;SDS011;978;48.314;11.562;2022-09-14T14:33:00;17.87;;;7.80;;
1955;SDS011;978;48.314;11.562;2022-09-14T14:35:30;22.53;;;7.80;;
1955;SDS011;978;48.314;11.562;2022-09-14T14:37:58;17.50;;;6.90;;
1955;SDS011;978;48.314;11.562;2022-09-14T14:40:26;17.27;;;7.80;;
1955;SDS011;978;48.314;11.562;2022-09-14T14:42:55;17.53;;;6.93;;
1955;SDS011;978;48.314;11.562;2022-09-14T14:45:24;17.73;;;7.30;;
1955;SDS011;978;48.314;11.562;2022-09-14T14:47:55;17.20;;;7.50;;
1955;SDS011;978;48.314;11.562;2022-09-14T14:50:25;17.50;;;8.73;;
1955;SDS011;978;48.314;11.562;2022-09-14T14:52:55;18.17;;;9.80;;
1955;SDS011;978;48.314;11.562;2022-09-14T14:55:24;19.30;;;9.37;;
1955;SDS011;978;48.314;11.562;2022-09-14T14:57:52;18.20;;;8.40;;
1955;SDS011;978;48.314;11.562;2022-09-14T15:00:24;17.50;;;8.47;;
1955;SDS011;978;48.314;11.562;2022-09-14T15:02:52;19.60;;;8.40;;
1955;SDS011;978;48.314;11.562;2022-09-14T15:05:22;18.27;;;9.10;;
1955;SDS011;978;48.314;11.562;2022-09-14T15:07:50;18.00;;;8.50;;
1955;SDS011;978;48.314;11.562;2022-09-14T15:10:21;18.90;;;9.97;;
1955;SDS011;978;48.314;11.562;2022-09-14T15:12:50;19.10;;;9.00;;
1955;SDS011;978;48.314;11.562;2022-09-14T15:15:21;18.20;;;8.77;;
1955;SDS011;978;48.314;11.562;2022-09-14T15:17:51;18.80;;;9.10;;
1955;SDS011;978;48.314;11.562;2022-09-14T15:20:20;21.30;;;14.07;;
1955;SDS011;978;48.314;11.562;2022-09-14T15:22:50;21.53;;;14.07;;
1955;SDS011;978;48.314;11.562;2022-09-14T15:25:18;22.70;;;17.40;;
1955;SDS011;978;48.314;11.562;2022-09-14T15:27:47;22.10;;;15.87;;
1955;SDS011;978;48.314;11.562;2022-09-14T15:30:15;21.67;;;15.83;;
1955;SDS011;978;48.314;11.562;2022-09-14T15:32:43;22.53;;;16.33;;
1955;SDS011;978;48.314;11.562;2022-09-14T15:35:12;24.30;;;21.57;;
1955;SDS011;978;48.314;11.562;2022-09-14T15:37:42;26.67;;;24.07;;
1955;SDS011;978;48.314;11.562;2022-09-14T15:40:10;22.60;;;19.63;;
1955;SDS011;978;48.314;11.562;2022-09-14T15:42:41;24.07;;;21.20;;
1955;SDS011;978;48.314;11.562;2022-09-14T15:45:09;24.43;;;21.83;;
1955;SDS011;978;48.314;11.562;2022-09-14T15:47:38;25.67;;;22.97;;
1955;SDS011;978;48.314;11.562;2022-09-14T15:50:08;24.77;;;22.37;;
1955;SDS011;978;48.314;11.562;2022-09-14T15:52:37;23.00;;;20.40;;
1955;SDS011;978;48.314;11.562;2022-09-14T15:55:09;23.17;;;19.00;;
1955;SDS011;978;48.314;11.562;2022-09-14T15:57:40;24.73;;;22.17;;
1955;SDS011;978;48.314;11.562;2022-09-14T16:00:07;22.83;;;19.50;;